createdAt,value
2022-08-07T00:15:22.922Z,16.31
2022-08-07T00:45:22.933Z,15.94
2022-08-07T01:15:22.937Z,15.25
2022-08-07T01:45:23.189Z,14.63
2022-08-07T02:15:22.967Z,14.5
2022-08-07T02:45:58.127Z,14.13
2022-08-07T03:15:30.406Z,13.56
2022-08-07T03:45:30.842Z,13.19
2022-08-07T04:15:23.848Z,12.81
2022-08-07T04:45:22.955Z,12.81
2022-08-07T05:15:24.014Z,13
2022-08-07T05:45:28.056Z,13.81
2022-08-07T06:15:22.966Z,14.75
2022-08-07T06:45:22.971Z,15.81
2022-08-07T07:15:23.961Z,16.94
2022-08-07T07:46:35.398Z,17.88
2022-08-07T08:15:23.278Z,19.06
2022-08-07T08:45:26.881Z,19.44
2022-08-07T09:16:25.455Z,19.88
2022-08-07T09:47:25.583Z,20.75
2022-08-07T10:15:23.049Z,21.31
2022-08-07T10:45:43.994Z,22
2022-08-07T11:15:26.265Z,23
2022-08-07T11:45:23.711Z,23.5
2022-08-07T12:15:57.963Z,25.06
2022-08-07T12:45:23.035Z,26.19
2022-08-07T13:15:23.480Z,27.13
2022-08-07T13:46:11.978Z,28.63
2022-08-07T14:15:23.855Z,28.44
2022-08-07T14:45:23.060Z,27.19
2022-08-07T15:15:23.050Z,27.44
2022-08-07T15:45:23.062Z,27.44
2022-08-07T16:15:55.191Z,27.44
2022-08-07T16:46:47.620Z,27.19
2022-08-07T17:15:28.832Z,28.31
2022-08-07T17:45:23.565Z,26.88
2022-08-07T18:15:23.090Z,25.13
2022-08-07T18:45:43.180Z,23.44
2022-08-07T19:16:05.270Z,22
2022-08-07T19:46:06.053Z,20.75
2022-08-07T20:15:23.134Z,20.13
2022-08-07T20:45:33.022Z,19.5
2022-08-07T21:15:23.126Z,19
2022-08-07T21:46:09.386Z,18.5
2022-08-07T22:16:44.187Z,17.69
2022-08-07T22:46:04.557Z,17.31
2022-08-07T23:16:06.913Z,16.5
2022-08-07T23:45:33.167Z,15.94
